sensor_id;sensor_type;location;lat;lon;timestamp;P1;durP1;ratioP1;P2;durP2;ratioP2
70675;SDS011;59069;52.242;20.900;2023-01-29T00:01:12;12.10;;;4.97;;
70675;SDS011;59069;52.242;20.900;2023-01-29T00:03:38;11.85;;;4.80;;
70675;SDS011;59069;52.242;20.900;2023-01-29T00:06:05;10.30;;;4.95;;
70675;SDS011;59069;52.242;20.900;2023-01-29T00:08:33;12.03;;;4.83;;
70675;SDS011;59069;52.242;20.900;2023-01-29T00:11:03;10.25;;;4.53;;
70675;SDS011;59069;52.242;20.900;2023-01-29T00:13:30;11.07;;;4.55;;
70675;SDS011;59069;52.242;20.900;2023-01-29T00:15:56;12.13;;;4.57;;
70675;SDS011;59069;52.242;20.900;2023-01-29T00:18:23;11.13;;;4.80;;
70675;SDS011;59069;52.242;20.900;2023-01-29T00:20:49;9.23;;;3.73;;
70675;SDS011;59069;52.242;20.900;2023-01-29T00:23:15;10.88;;;4.00;;
70675;SDS011;59069;52.242;20.900;2023-01-29T00:25:41;11.57;;;3.83;;
70675;SDS011;59069;52.242;20.900;2023-01-29T00:28:08;8.77;;;3.65;;
70675;SDS011;59069;52.242;20.900;2023-01-29T00:30:34;8.47;;;3.60;;
70675;SDS011;59069;52.242;20.900;2023-01-29T00:33:00;10.55;;;3.53;;
70675;SDS011;59069;52.242;20.900;2023-01-29T00:35:26;10.80;;;4.40;;
70675;SDS011;59069;52.242;20.900;2023-01-29T00:37:53;9.53;;;3.73;;
70675;SDS011;59069;52.242;20.900;2023-01-29T00:40:19;10.27;;;3.30;;
70675;SDS011;59069;52.242;20.900;2023-01-29T00:42:46;9.23;;;3.22;;
70675;SDS011;59069;52.242;20.900;2023-01-29T00:45:30;8.65;;;3.22;;
70675;SDS011;59069;52.242;20.900;2023-01-29T00:47:56;7.20;;;2.83;;
70675;SDS011;59069;52.242;20.900;2023-01-29T00:50:22;8.50;;;3.13;;
70675;SDS011;59069;52.242;20.900;2023-01-29T00:52:47;8.27;;;3.27;;
70675;SDS011;59069;52.242;20.900;2023-01-29T00:55:15;8.75;;;3.17;;
70675;SDS011;59069;52.242;20.900;2023-01-29T00:57:41;7.78;;;3.03;;
70675;SDS011;59069;52.242;20.900;2023-01-29T01:00:08;9.75;;;3.53;;
70675;SDS011;59069;52.242;20.900;2023-01-29T01:02:36;9.53;;;3.00;;
70675;SDS011;59069;52.242;20.900;2023-01-29T01:05:20;10.02;;;2.67;;
70675;SDS011;59069;52.242;20.900;2023-01-29T01:07:47;8.75;;;3.10;;
70675;SDS011;59069;52.242;20.900;2023-01-29T01:10:18;10.30;;;3.90;;
70675;SDS011;59069;52.242;20.900;2023-01-29T01:13:08;8.93;;;2.92;;
70675;SDS011;59069;52.242;20.900;2023-01-29T01:15:34;9.27;;;3.63;;
70675;SDS011;59069;52.242;20.900;2023-01-29T01:18:04;8.32;;;3.20;;
70675;SDS011;59069;52.242;20.900;2023-01-29T01:20:31;10.00;;;3.42;;
70675;SDS011;59069;52.242;20.900;2023-01-29T01:22:59;9.33;;;3.40;;
70675;SDS011;59069;52.242;20.900;2023-01-29T01:25:25;8.82;;;3.50;;
70675;SDS011;59069;52.242;20.900;2023-01-29T01:27:54;12.30;;;3.88;;
70675;SDS011;59069;52.242;20.900;2023-01-29T01:30:22;13.13;;;3.63;;
70675;SDS011;59069;52.242;20.900;2023-01-29T01:32:49;10.90;;;3.53;;
70675;SDS011;59069;52.242;20.900;2023-01-29T01:35:14;8.95;;;3.58;;
70675;SDS011;59069;52.242;20.900;2023-01-29T01:37:40;11.93;;;3.83;;
70675;SDS011;59069;52.242;20.900;2023-01-29T01:40:08;9.88;;;4.00;;
70675;SDS011;59069;52.242;20.900;2023-01-29T01:42:42;9.05;;;3.53;;
70675;SDS011;59069;52.242;20.900;2023-01-29T01:45:18;9.63;;;3.75;;
70675;SDS011;59069;52.242;20.900;2023-01-29T01:47:48;10.30;;;3.60;;
70675;SDS011;59069;52.242;20.900;2023-01-29T01:53:24;11.60;;;4.15;;
70675;SDS011;59069;52.242;20.900;2023-01-29T01:55:57;9.65;;;4.00;;
70675;SDS011;59069;52.242;20.900;2023-01-29T01:58:33;11.90;;;4.43;;
70675;SDS011;59069;52.242;20.900;2023-01-29T02:01:21;11.13;;;4.77;;
70675;SDS011;59069;52.242;20.900;2023-01-29T02:03:56;13.50;;;4.80;;
70675;SDS011;59069;52.242;20.900;2023-01-29T02:06:45;13.30;;;5.28;;
70675;SDS011;59069;52.242;20.900;2023-01-29T02:09:31;10.45;;;4.32;;
70675;SDS011;59069;52.242;20.900;2023-01-29T02:12:11;12.23;;;4.80;;
70675;SDS011;59069;52.242;20.900;2023-01-29T02:14:39;14.57;;;4.77;;
70675;SDS011;59069;52.242;20.900;2023-01-29T02:17:12;11.90;;;5.13;;
70675;SDS011;59069;52.242;20.900;2023-01-29T02:22:11;12.00;;;5.17;;
70675;SDS011;59069;52.242;20.900;2023-01-29T02:25:09;11.18;;;4.70;;
70675;SDS011;59069;52.242;20.900;2023-01-29T02:28:15;14.98;;;5.45;;
70675;SDS011;59069;52.242;20.900;2023-01-29T02:39:11;11.52;;;5.00;;
70675;SDS011;59069;52.242;20.900;2023-01-29T02:44:43;14.40;;;5.47;;
70675;SDS011;59069;52.242;20.900;2023-01-29T02:53:10;13.40;;;4.97;;
70675;SDS011;59069;52.242;20.900;2023-01-29T02:55:41;13.02;;;4.88;;
70675;SDS011;59069;52.242;20.900;2023-01-29T03:01:00;12.05;;;4.88;;
70675;SDS011;59069;52.242;20.900;2023-01-29T03:03:33;10.03;;;3.93;;
70675;SDS011;59069;52.242;20.900;2023-01-29T03:11:42;12.70;;;4.63;;
70675;SDS011;59069;52.242;20.900;2023-01-29T03:14:15;11.50;;;4.93;;
70675;SDS011;59069;52.242;20.900;2023-01-29T03:16:51;11.17;;;4.90;;
70675;SDS011;59069;52.242;20.900;2023-01-29T03:19:26;14.82;;;5.55;;
70675;SDS011;59069;52.242;20.900;2023-01-29T03:21:58;13.18;;;4.72;;
70675;SDS011;59069;52.242;20.900;2023-01-29T03:27:39;13.00;;;4.45;;
70675;SDS011;59069;52.242;20.900;2023-01-29T03:30:29;15.03;;;5.20;;
70675;SDS011;59069;52.242;20.900;2023-01-29T03:33:16;11.93;;;4.25;;
70675;SDS011;59069;52.242;20.900;2023-01-29T03:35:55;15.90;;;5.65;;
70675;SDS011;59069;52.242;20.900;2023-01-29T03:38:27;13.45;;;5.07;;
70675;SDS011;59069;52.242;20.900;2023-01-29T03:40:57;13.40;;;4.97;;
70675;SDS011;59069;52.242;20.900;2023-01-29T03:56:49;16.83;;;4.80;;
70675;SDS011;59069;52.242;20.900;2023-01-29T04:02:12;13.47;;;4.53;;
70675;SDS011;59069;52.242;20.900;2023-01-29T04:04:51;14.65;;;4.70;;
70675;SDS011;59069;52.242;20.900;2023-01-29T04:07:20;12.30;;;4.45;;
70675;SDS011;59069;52.242;20.900;2023-01-29T04:09:55;10.75;;;4.22;;
70675;SDS011;59069;52.242;20.900;2023-01-29T04:12:33;11.43;;;4.40;;
70675;SDS011;59069;52.242;20.900;2023-01-29T04:15:03;11.57;;;4.13;;
70675;SDS011;59069;52.242;20.900;2023-01-29T04:17:36;13.30;;;4.43;;
70675;SDS011;59069;52.242;20.900;2023-01-29T04:20:04;11.32;;;4.10;;
70675;SDS011;59069;52.242;20.900;2023-01-29T04:22:31;12.55;;;4.13;;
70675;SDS011;59069;52.242;20.900;2023-01-29T04:24:59;12.18;;;4.97;;
70675;SDS011;59069;52.242;20.900;2023-01-29T04:27:50;11.53;;;4.27;;
70675;SDS011;59069;52.242;20.900;2023-01-29T04:39:01;11.00;;;4.25;;
70675;SDS011;59069;52.242;20.900;2023-01-29T04:41:36;12.53;;;4.03;;
70675;SDS011;59069;52.242;20.900;2023-01-29T04:44:32;12.65;;;4.57;;
70675;SDS011;59069;52.242;20.900;2023-01-29T04:47:04;13.48;;;4.38;;
70675;SDS011;59069;52.242;20.900;2023-01-29T04:49:45;11.13;;;4.25;;
70675;SDS011;59069;52.242;20.900;2023-01-29T05:00:32;10.85;;;4.40;;
70675;SDS011;59069;52.242;20.900;2023-01-29T05:03:01;14.85;;;4.60;;
70675;SDS011;59069;52.242;20.900;2023-01-29T05:05:27;13.77;;;4.53;;
70675;SDS011;59069;52.242;20.900;2023-01-29T05:07:54;12.93;;;4.83;;
70675;SDS011;59069;52.242;20.900;2023-01-29T05:10:22;12.48;;;4.32;;
70675;SDS011;59069;52.242;20.900;2023-01-29T05:12:51;13.60;;;4.95;;
70675;SDS011;59069;52.242;20.900;2023-01-29T05:15:35;11.25;;;4.50;;
70675;SDS011;59069;52.242;20.900;2023-01-29T05:18:03;11.73;;;4.32;;
70675;SDS011;59069;52.242;20.900;2023-01-29T05:20:33;12.03;;;5.13;;
70675;SDS011;59069;52.242;20.900;2023-01-29T05:23:02;11.65;;;4.63;;
70675;SDS011;59069;52.242;20.900;2023-01-29T05:25:28;9.65;;;3.83;;
70675;SDS011;59069;52.242;20.900;2023-01-29T05:27:56;14.27;;;4.70;;
70675;SDS011;59069;52.242;20.900;2023-01-29T05:30:35;14.32;;;5.00;;
70675;SDS011;59069;52.242;20.900;2023-01-29T05:33:02;12.77;;;5.00;;
70675;SDS011;59069;52.242;20.900;2023-01-29T05:35:28;17.98;;;5.22;;
70675;SDS011;59069;52.242;20.900;2023-01-29T05:37:54;12.68;;;4.88;;
70675;SDS011;59069;52.242;20.900;2023-01-29T05:40:21;13.20;;;4.97;;
70675;SDS011;59069;52.242;20.900;2023-01-29T05:42:47;12.68;;;4.95;;
70675;SDS011;59069;52.242;20.900;2023-01-29T05:45:12;15.37;;;5.37;;
70675;SDS011;59069;52.242;20.900;2023-01-29T05:47:38;15.53;;;5.03;;
70675;SDS011;59069;52.242;20.900;2023-01-29T05:50:04;13.38;;;5.30;;
70675;SDS011;59069;52.242;20.900;2023-01-29T05:52:30;14.02;;;5.72;;
70675;SDS011;59069;52.242;20.900;2023-01-29T05:54:56;13.77;;;5.80;;
70675;SDS011;59069;52.242;20.900;2023-01-29T05:57:21;15.00;;;5.00;;
70675;SDS011;59069;52.242;20.900;2023-01-29T05:59:47;14.75;;;5.28;;
70675;SDS011;59069;52.242;20.900;2023-01-29T06:02:12;12.53;;;5.00;;
70675;SDS011;59069;52.242;20.900;2023-01-29T06:04:38;13.55;;;5.50;;
70675;SDS011;59069;52.242;20.900;2023-01-29T06:07:03;15.17;;;5.53;;
70675;SDS011;59069;52.242;20.900;2023-01-29T06:09:29;13.70;;;4.90;;
70675;SDS011;59069;52.242;20.900;2023-01-29T06:11:55;15.23;;;5.17;;
70675;SDS011;59069;52.242;20.900;2023-01-29T06:14:20;15.87;;;5.80;;
70675;SDS011;59069;52.242;20.900;2023-01-29T06:16:46;15.55;;;5.53;;
70675;SDS011;59069;52.242;20.900;2023-01-29T06:19:11;16.20;;;6.10;;
70675;SDS011;59069;52.242;20.900;2023-01-29T06:21:37;13.53;;;4.80;;
70675;SDS011;59069;52.242;20.900;2023-01-29T06:24:03;14.20;;;5.40;;
70675;SDS011;59069;52.242;20.900;2023-01-29T06:26:28;13.75;;;6.03;;
70675;SDS011;59069;52.242;20.900;2023-01-29T06:28:54;16.10;;;5.97;;
70675;SDS011;59069;52.242;20.900;2023-01-29T06:31:20;16.37;;;5.50;;
70675;SDS011;59069;52.242;20.900;2023-01-29T06:33:45;13.73;;;5.07;;
70675;SDS011;59069;52.242;20.900;2023-01-29T06:36:11;12.63;;;5.77;;
70675;SDS011;59069;52.242;20.900;2023-01-29T06:38:36;16.08;;;5.57;;
70675;SDS011;59069;52.242;20.900;2023-01-29T06:41:09;13.53;;;5.53;;
70675;SDS011;59069;52.242;20.900;2023-01-29T06:43:37;15.05;;;6.07;;
70675;SDS011;59069;52.242;20.900;2023-01-29T06:46:05;16.63;;;5.93;;
70675;SDS011;59069;52.242;20.900;2023-01-29T06:48:31;16.02;;;5.95;;
70675;SDS011;59069;52.242;20.900;2023-01-29T06:51:00;19.40;;;6.13;;
70675;SDS011;59069;52.242;20.900;2023-01-29T06:53:29;16.63;;;5.73;;
70675;SDS011;59069;52.242;20.900;2023-01-29T06:55:55;16.63;;;5.82;;
70675;SDS011;59069;52.242;20.900;2023-01-29T06:58:21;16.63;;;5.47;;
70675;SDS011;59069;52.242;20.900;2023-01-29T07:00:47;14.63;;;5.67;;
70675;SDS011;59069;52.242;20.900;2023-01-29T07:03:12;15.48;;;5.70;;
70675;SDS011;59069;52.242;20.900;2023-01-29T07:05:38;13.93;;;5.77;;
70675;SDS011;59069;52.242;20.900;2023-01-29T07:08:04;15.97;;;6.00;;
70675;SDS011;59069;52.242;20.900;2023-01-29T07:10:30;16.77;;;5.90;;
70675;SDS011;59069;52.242;20.900;2023-01-29T07:12:57;14.25;;;5.47;;
70675;SDS011;59069;52.242;20.900;2023-01-29T07:15:23;15.75;;;6.05;;
70675;SDS011;59069;52.242;20.900;2023-01-29T07:17:56;15.27;;;5.57;;
70675;SDS011;59069;52.242;20.900;2023-01-29T07:20:23;12.97;;;4.73;;
70675;SDS011;59069;52.242;20.900;2023-01-29T07:22:50;14.45;;;5.57;;
70675;SDS011;59069;52.242;20.900;2023-01-29T07:25:16;14.47;;;5.23;;
70675;SDS011;59069;52.242;20.900;2023-01-29T07:27:41;14.87;;;5.30;;
70675;SDS011;59069;52.242;20.900;2023-01-29T07:30:07;14.77;;;5.82;;
70675;SDS011;59069;52.242;20.900;2023-01-29T07:32:33;14.83;;;5.50;;
70675;SDS011;59069;52.242;20.900;2023-01-29T07:34:59;17.75;;;5.25;;
70675;SDS011;59069;52.242;20.900;2023-01-29T07:37:24;17.90;;;5.20;;
70675;SDS011;59069;52.242;20.900;2023-01-29T07:39:50;11.82;;;4.90;;
70675;SDS011;59069;52.242;20.900;2023-01-29T07:42:15;17.17;;;6.20;;
70675;SDS011;59069;52.242;20.900;2023-01-29T07:44:41;14.57;;;5.00;;
70675;SDS011;59069;52.242;20.900;2023-01-29T07:47:07;16.33;;;6.13;;
70675;SDS011;59069;52.242;20.900;2023-01-29T07:49:32;15.80;;;6.20;;
70675;SDS011;59069;52.242;20.900;2023-01-29T07:51:58;18.70;;;5.13;;
70675;SDS011;59069;52.242;20.900;2023-01-29T07:54:23;15.27;;;5.27;;
70675;SDS011;59069;52.242;20.900;2023-01-29T07:56:49;14.93;;;5.53;;
70675;SDS011;59069;52.242;20.900;2023-01-29T07:59:14;14.30;;;5.40;;
70675;SDS011;59069;52.242;20.900;2023-01-29T08:01:40;14.17;;;5.47;;
70675;SDS011;59069;52.242;20.900;2023-01-29T08:04:06;12.53;;;4.97;;
70675;SDS011;59069;52.242;20.900;2023-01-29T08:06:31;16.00;;;5.10;;
70675;SDS011;59069;52.242;20.900;2023-01-29T08:08:57;14.10;;;5.67;;
70675;SDS011;59069;52.242;20.900;2023-01-29T08:11:23;17.17;;;6.03;;
70675;SDS011;59069;52.242;20.900;2023-01-29T08:13:49;15.18;;;5.15;;
70675;SDS011;59069;52.242;20.900;2023-01-29T08:16:15;14.80;;;5.67;;
70675;SDS011;59069;52.242;20.900;2023-01-29T08:18:40;16.47;;;5.83;;
70675;SDS011;59069;52.242;20.900;2023-01-29T08:21:11;13.40;;;5.57;;
70675;SDS011;59069;52.242;20.900;2023-01-29T08:23:37;14.68;;;5.00;;
70675;SDS011;59069;52.242;20.900;2023-01-29T08:26:03;12.73;;;5.13;;
70675;SDS011;59069;52.242;20.900;2023-01-29T08:28:29;15.45;;;5.35;;
70675;SDS011;59069;52.242;20.900;2023-01-29T08:30:55;13.88;;;5.20;;
70675;SDS011;59069;52.242;20.900;2023-01-29T08:33:20;14.57;;;5.70;;
70675;SDS011;59069;52.242;20.900;2023-01-29T08:35:49;12.50;;;4.95;;
70675;SDS011;59069;52.242;20.900;2023-01-29T08:38:15;13.13;;;5.20;;
70675;SDS011;59069;52.242;20.900;2023-01-29T08:40:42;13.00;;;5.30;;
70675;SDS011;59069;52.242;20.900;2023-01-29T08:43:09;16.67;;;5.80;;
70675;SDS011;59069;52.242;20.900;2023-01-29T08:45:37;13.95;;;4.95;;
70675;SDS011;59069;52.242;20.900;2023-01-29T08:48:07;12.50;;;4.90;;
70675;SDS011;59069;52.242;20.900;2023-01-29T08:50:33;15.30;;;4.67;;
70675;SDS011;59069;52.242;20.900;2023-01-29T08:53:00;12.73;;;4.32;;
70675;SDS011;59069;52.242;20.900;2023-01-29T08:55:27;13.32;;;4.60;;
70675;SDS011;59069;52.242;20.900;2023-01-29T08:57:53;15.02;;;4.78;;
70675;SDS011;59069;52.242;20.900;2023-01-29T09:00:18;13.50;;;5.70;;
70675;SDS011;59069;52.242;20.900;2023-01-29T09:02:44;14.77;;;4.93;;
70675;SDS011;59069;52.242;20.900;2023-01-29T09:05:10;12.47;;;4.97;;
70675;SDS011;59069;52.242;20.900;2023-01-29T09:07:36;12.87;;;5.30;;
70675;SDS011;59069;52.242;20.900;2023-01-29T09:10:01;15.00;;;5.27;;
70675;SDS011;59069;52.242;20.900;2023-01-29T09:12:27;13.18;;;5.10;;
70675;SDS011;59069;52.242;20.900;2023-01-29T09:14:53;14.60;;;5.20;;
70675;SDS011;59069;52.242;20.900;2023-01-29T09:17:19;12.07;;;4.80;;
70675;SDS011;59069;52.242;20.900;2023-01-29T09:19:44;16.20;;;5.18;;
70675;SDS011;59069;52.242;20.900;2023-01-29T09:22:10;14.17;;;4.80;;
70675;SDS011;59069;52.242;20.900;2023-01-29T09:24:36;13.93;;;5.22;;
70675;SDS011;59069;52.242;20.900;2023-01-29T09:27:01;13.07;;;5.33;;
70675;SDS011;59069;52.242;20.900;2023-01-29T09:29:27;12.13;;;5.03;;
70675;SDS011;59069;52.242;20.900;2023-01-29T09:31:54;13.95;;;5.40;;
70675;SDS011;59069;52.242;20.900;2023-01-29T09:34:19;12.45;;;5.50;;
70675;SDS011;59069;52.242;20.900;2023-01-29T09:36:45;12.43;;;4.63;;
70675;SDS011;59069;52.242;20.900;2023-01-29T09:39:10;16.13;;;5.30;;
70675;SDS011;59069;52.242;20.900;2023-01-29T09:46:55;13.23;;;4.97;;
70675;SDS011;59069;52.242;20.900;2023-01-29T09:49:32;17.58;;;5.40;;
70675;SDS011;59069;52.242;20.900;2023-01-29T09:54:53;14.35;;;5.03;;
70675;SDS011;59069;52.242;20.900;2023-01-29T09:57:33;16.20;;;5.57;;
70675;SDS011;59069;52.242;20.900;2023-01-29T10:00:22;14.38;;;5.10;;
70675;SDS011;59069;52.242;20.900;2023-01-29T10:10:47;15.67;;;5.47;;
70675;SDS011;59069;52.242;20.900;2023-01-29T10:13:24;14.95;;;5.55;;
70675;SDS011;59069;52.242;20.900;2023-01-29T10:19:30;14.63;;;5.47;;
70675;SDS011;59069;52.242;20.900;2023-01-29T10:27:14;14.93;;;6.05;;
70675;SDS011;59069;52.242;20.900;2023-01-29T10:29:41;15.13;;;6.35;;
70675;SDS011;59069;52.242;20.900;2023-01-29T10:32:10;16.35;;;5.10;;
70675;SDS011;59069;52.242;20.900;2023-01-29T10:34:42;12.25;;;5.57;;
70675;SDS011;59069;52.242;20.900;2023-01-29T10:37:17;14.20;;;5.70;;
70675;SDS011;59069;52.242;20.900;2023-01-29T10:39:48;15.27;;;4.38;;
70675;SDS011;59069;52.242;20.900;2023-01-29T10:54:10;16.00;;;5.78;;
70675;SDS011;59069;52.242;20.900;2023-01-29T10:57:04;15.05;;;5.97;;
70675;SDS011;59069;52.242;20.900;2023-01-29T11:02:32;13.02;;;5.25;;
70675;SDS011;59069;52.242;20.900;2023-01-29T11:04:58;15.70;;;5.40;;
70675;SDS011;59069;52.242;20.900;2023-01-29T11:07:24;17.55;;;6.15;;
70675;SDS011;59069;52.242;20.900;2023-01-29T11:10:08;14.73;;;5.70;;
70675;SDS011;59069;52.242;20.900;2023-01-29T11:12:38;19.17;;;7.67;;
70675;SDS011;59069;52.242;20.900;2023-01-29T11:18:01;19.90;;;6.57;;
70675;SDS011;59069;52.242;20.900;2023-01-29T11:20:38;16.40;;;6.65;;
70675;SDS011;59069;52.242;20.900;2023-01-29T11:23:17;15.35;;;6.22;;
70675;SDS011;59069;52.242;20.900;2023-01-29T11:25:52;18.60;;;7.13;;
70675;SDS011;59069;52.242;20.900;2023-01-29T11:28:39;18.30;;;6.38;;
70675;SDS011;59069;52.242;20.900;2023-01-29T11:31:28;14.90;;;6.47;;
70675;SDS011;59069;52.242;20.900;2023-01-29T11:34:21;18.25;;;6.32;;
70675;SDS011;59069;52.242;20.900;2023-01-29T11:36:56;15.07;;;6.97;;
70675;SDS011;59069;52.242;20.900;2023-01-29T11:39:30;16.67;;;6.00;;
70675;SDS011;59069;52.242;20.900;2023-01-29T11:42:00;16.27;;;6.30;;
70675;SDS011;59069;52.242;20.900;2023-01-29T11:47:09;16.23;;;6.30;;
70675;SDS011;59069;52.242;20.900;2023-01-29T11:49:58;16.42;;;6.57;;
70675;SDS011;59069;52.242;20.900;2023-01-29T11:52:32;16.80;;;6.40;;
70675;SDS011;59069;52.242;20.900;2023-01-29T11:57:42;17.27;;;6.82;;
70675;SDS011;59069;52.242;20.900;2023-01-29T12:02:44;13.45;;;5.82;;
70675;SDS011;59069;52.242;20.900;2023-01-29T12:05:17;16.40;;;6.00;;
70675;SDS011;59069;52.242;20.900;2023-01-29T12:07:47;18.77;;;7.20;;
70675;SDS011;59069;52.242;20.900;2023-01-29T12:13:45;15.50;;;6.25;;
70675;SDS011;59069;52.242;20.900;2023-01-29T12:26:59;17.60;;;7.85;;
70675;SDS011;59069;52.242;20.900;2023-01-29T12:35:20;15.73;;;6.70;;
70675;SDS011;59069;52.242;20.900;2023-01-29T12:38:16;20.25;;;7.25;;
70675;SDS011;59069;52.242;20.900;2023-01-29T12:43:26;24.17;;;7.70;;
70675;SDS011;59069;52.242;20.900;2023-01-29T12:46:05;18.07;;;7.70;;
70675;SDS011;59069;52.242;20.900;2023-01-29T12:48:37;17.77;;;7.28;;
70675;SDS011;59069;52.242;20.900;2023-01-29T12:51:08;16.67;;;7.40;;
70675;SDS011;59069;52.242;20.900;2023-01-29T12:56:47;18.92;;;7.88;;
70675;SDS011;59069;52.242;20.900;2023-01-29T12:59:19;21.17;;;7.57;;
70675;SDS011;59069;52.242;20.900;2023-01-29T13:01:53;18.85;;;7.45;;
70675;SDS011;59069;52.242;20.900;2023-01-29T13:04:31;16.70;;;7.43;;
70675;SDS011;59069;52.242;20.900;2023-01-29T13:07:07;19.95;;;7.35;;
70675;SDS011;59069;52.242;20.900;2023-01-29T13:09:37;22.25;;;7.70;;
70675;SDS011;59069;52.242;20.900;2023-01-29T13:12:10;19.43;;;8.03;;
70675;SDS011;59069;52.242;20.900;2023-01-29T13:17:35;19.40;;;7.85;;
70675;SDS011;59069;52.242;20.900;2023-01-29T13:20:15;20.90;;;7.88;;
70675;SDS011;59069;52.242;20.900;2023-01-29T13:22:45;23.45;;;9.27;;
70675;SDS011;59069;52.242;20.900;2023-01-29T13:25:18;23.10;;;9.03;;
70675;SDS011;59069;52.242;20.900;2023-01-29T13:27:45;21.30;;;8.88;;
70675;SDS011;59069;52.242;20.900;2023-01-29T13:32:51;19.10;;;8.18;;
70675;SDS011;59069;52.242;20.900;2023-01-29T13:35:18;26.15;;;9.07;;
70675;SDS011;59069;52.242;20.900;2023-01-29T13:37:51;23.40;;;8.60;;
70675;SDS011;59069;52.242;20.900;2023-01-29T13:40:25;23.08;;;9.40;;
70675;SDS011;59069;52.242;20.900;2023-01-29T13:42:53;19.60;;;9.07;;
70675;SDS011;59069;52.242;20.900;2023-01-29T13:45:30;22.88;;;9.50;;
70675;SDS011;59069;52.242;20.900;2023-01-29T13:50:47;22.50;;;8.83;;
70675;SDS011;59069;52.242;20.900;2023-01-29T13:53:34;22.42;;;8.73;;
70675;SDS011;59069;52.242;20.900;2023-01-29T13:58:53;21.85;;;8.75;;
70675;SDS011;59069;52.242;20.900;2023-01-29T14:04:23;27.57;;;10.33;;
70675;SDS011;59069;52.242;20.900;2023-01-29T14:06:53;25.80;;;9.43;;
70675;SDS011;59069;52.242;20.900;2023-01-29T14:12:01;27.88;;;10.70;;
70675;SDS011;59069;52.242;20.900;2023-01-29T14:17:14;27.97;;;10.53;;
70675;SDS011;59069;52.242;20.900;2023-01-29T14:19:50;22.00;;;9.35;;
70675;SDS011;59069;52.242;20.900;2023-01-29T14:22:25;26.42;;;10.07;;
70675;SDS011;59069;52.242;20.900;2023-01-29T14:24:52;22.83;;;9.95;;
70675;SDS011;59069;52.242;20.900;2023-01-29T14:27:24;24.65;;;10.38;;
70675;SDS011;59069;52.242;20.900;2023-01-29T14:29:50;22.70;;;9.20;;
70675;SDS011;59069;52.242;20.900;2023-01-29T14:32:23;27.88;;;9.65;;
70675;SDS011;59069;52.242;20.900;2023-01-29T14:34:51;26.25;;;9.32;;
70675;SDS011;59069;52.242;20.900;2023-01-29T14:37:27;26.05;;;10.02;;
70675;SDS011;59069;52.242;20.900;2023-01-29T14:39:58;25.42;;;10.23;;
70675;SDS011;59069;52.242;20.900;2023-01-29T14:42:37;26.40;;;9.83;;
70675;SDS011;59069;52.242;20.900;2023-01-29T14:45:21;24.08;;;10.00;;
70675;SDS011;59069;52.242;20.900;2023-01-29T14:55:29;22.40;;;10.00;;
70675;SDS011;59069;52.242;20.900;2023-01-29T14:58:18;25.73;;;10.25;;
70675;SDS011;59069;52.242;20.900;2023-01-29T15:00:50;27.20;;;10.30;;
70675;SDS011;59069;52.242;20.900;2023-01-29T15:06:00;27.13;;;10.57;;
70675;SDS011;59069;52.242;20.900;2023-01-29T15:08:37;24.80;;;9.70;;
70675;SDS011;59069;52.242;20.900;2023-01-29T15:11:13;23.38;;;9.68;;
70675;SDS011;59069;52.242;20.900;2023-01-29T15:14:05;25.25;;;9.65;;
70675;SDS011;59069;52.242;20.900;2023-01-29T15:19:46;21.40;;;8.68;;
70675;SDS011;59069;52.242;20.900;2023-01-29T15:22:16;23.77;;;8.67;;
70675;SDS011;59069;52.242;20.900;2023-01-29T15:24:44;20.85;;;7.85;;
70675;SDS011;59069;52.242;20.900;2023-01-29T15:27:12;21.83;;;9.35;;
70675;SDS011;59069;52.242;20.900;2023-01-29T15:29:40;19.30;;;7.82;;
70675;SDS011;59069;52.242;20.900;2023-01-29T15:32:13;26.70;;;9.82;;
70675;SDS011;59069;52.242;20.900;2023-01-29T15:34:44;24.50;;;9.03;;
70675;SDS011;59069;52.242;20.900;2023-01-29T15:37:23;22.30;;;9.63;;
70675;SDS011;59069;52.242;20.900;2023-01-29T15:39:53;24.55;;;9.43;;
70675;SDS011;59069;52.242;20.900;2023-01-29T15:42:19;24.58;;;9.82;;
70675;SDS011;59069;52.242;20.900;2023-01-29T15:44:49;23.07;;;9.77;;
70675;SDS011;59069;52.242;20.900;2023-01-29T15:47:18;23.48;;;9.60;;
70675;SDS011;59069;52.242;20.900;2023-01-29T15:49:49;26.05;;;9.68;;
70675;SDS011;59069;52.242;20.900;2023-01-29T15:52:16;28.45;;;11.15;;
70675;SDS011;59069;52.242;20.900;2023-01-29T15:54:45;28.17;;;10.97;;
70675;SDS011;59069;52.242;20.900;2023-01-29T15:57:22;23.98;;;9.00;;
70675;SDS011;59069;52.242;20.900;2023-01-29T15:59:50;29.52;;;10.77;;
70675;SDS011;59069;52.242;20.900;2023-01-29T16:02:20;27.35;;;9.88;;
70675;SDS011;59069;52.242;20.900;2023-01-29T16:04:53;26.93;;;11.43;;
70675;SDS011;59069;52.242;20.900;2023-01-29T16:07:19;25.23;;;10.32;;
70675;SDS011;59069;52.242;20.900;2023-01-29T16:09:45;28.50;;;11.57;;
70675;SDS011;59069;52.242;20.900;2023-01-29T16:12:11;27.07;;;11.13;;
70675;SDS011;59069;52.242;20.900;2023-01-29T16:14:37;28.35;;;10.35;;
70675;SDS011;59069;52.242;20.900;2023-01-29T16:19:58;26.92;;;8.88;;
70675;SDS011;59069;52.242;20.900;2023-01-29T16:22:26;28.30;;;11.87;;
70675;SDS011;59069;52.242;20.900;2023-01-29T16:24:55;30.58;;;12.20;;
70675;SDS011;59069;52.242;20.900;2023-01-29T16:27:25;30.00;;;12.02;;
70675;SDS011;59069;52.242;20.900;2023-01-29T16:29:51;25.65;;;10.77;;
70675;SDS011;59069;52.242;20.900;2023-01-29T16:32:17;32.43;;;12.90;;
70675;SDS011;59069;52.242;20.900;2023-01-29T16:34:44;33.38;;;12.10;;
70675;SDS011;59069;52.242;20.900;2023-01-29T16:37:17;31.52;;;11.10;;
70675;SDS011;59069;52.242;20.900;2023-01-29T16:39:48;27.13;;;10.15;;
70675;SDS011;59069;52.242;20.900;2023-01-29T16:44:52;32.97;;;12.63;;
70675;SDS011;59069;52.242;20.900;2023-01-29T16:47:48;27.98;;;10.90;;
70675;SDS011;59069;52.242;20.900;2023-01-29T16:50:33;28.95;;;10.63;;
70675;SDS011;59069;52.242;20.900;2023-01-29T16:53:19;31.08;;;12.07;;
70675;SDS011;59069;52.242;20.900;2023-01-29T16:55:47;30.45;;;11.45;;
70675;SDS011;59069;52.242;20.900;2023-01-29T16:58:16;29.93;;;11.10;;
70675;SDS011;59069;52.242;20.900;2023-01-29T17:00:52;34.63;;;11.98;;
70675;SDS011;59069;52.242;20.900;2023-01-29T17:03:22;31.02;;;12.30;;
70675;SDS011;59069;52.242;20.900;2023-01-29T17:05:49;36.03;;;13.13;;
70675;SDS011;59069;52.242;20.900;2023-01-29T17:08:17;37.15;;;14.13;;
70675;SDS011;59069;52.242;20.900;2023-01-29T17:10:52;31.43;;;12.53;;
70675;SDS011;59069;52.242;20.900;2023-01-29T17:13:37;29.98;;;12.05;;
70675;SDS011;59069;52.242;20.900;2023-01-29T17:16:45;29.42;;;11.18;;
70675;SDS011;59069;52.242;20.900;2023-01-29T17:19:01;34.17;;;11.98;;
70675;SDS011;59069;52.242;20.900;2023-01-29T17:21:40;33.80;;;12.80;;
70675;SDS011;59069;52.242;20.900;2023-01-29T17:24:06;32.15;;;12.57;;
70675;SDS011;59069;52.242;20.900;2023-01-29T17:26:31;32.53;;;11.93;;
70675;SDS011;59069;52.242;20.900;2023-01-29T17:29:00;30.80;;;11.93;;
70675;SDS011;59069;52.242;20.900;2023-01-29T17:31:26;34.43;;;12.20;;
70675;SDS011;59069;52.242;20.900;2023-01-29T17:33:51;37.67;;;13.50;;
70675;SDS011;59069;52.242;20.900;2023-01-29T17:36:17;33.63;;;12.37;;
70675;SDS011;59069;52.242;20.900;2023-01-29T17:38:43;35.60;;;13.95;;
70675;SDS011;59069;52.242;20.900;2023-01-29T17:43:44;34.03;;;13.00;;
70675;SDS011;59069;52.242;20.900;2023-01-29T17:46:14;32.13;;;12.83;;